sensor_id;sensor_type;location;lat;lon;timestamp;temperature;humidity
45319;DHT22;31057;48.498;32.260;2022-12-05T00:00:14;-7.30;99.90
45319;DHT22;31057;48.498;32.260;2022-12-05T00:02:16;-7.30;99.90
45319;DHT22;31057;48.498;32.260;2022-12-05T00:04:18;-7.30;99.90
45319;DHT22;31057;48.498;32.260;2022-12-05T00:06:21;-7.40;99.90
45319;DHT22;31057;48.498;32.260;2022-12-05T00:08:23;-7.30;99.90
45319;DHT22;31057;48.498;32.260;2022-12-05T00:48:20;-7.20;99.90
45319;DHT22;31057;48.498;32.260;2022-12-05T00:50:22;-7.30;99.90
45319;DHT22;31057;48.498;32.260;2022-12-05T00:52:24;-7.30;99.90
45319;DHT22;31057;48.498;32.260;2022-12-05T00:54:25;-7.30;99.90
45319;DHT22;31057;48.498;32.260;2022-12-05T00:56:29;-7.30;99.90
45319;DHT22;31057;48.498;32.260;2022-12-05T00:58:31;-7.30;99.90
45319;DHT22;31057;48.498;32.260;2022-12-05T01:00:34;-7.20;99.90
45319;DHT22;31057;48.498;32.260;2022-12-05T01:02:35;-7.30;99.90
45319;DHT22;31057;48.498;32.260;2022-12-05T01:04:37;-7.30;99.90
45319;DHT22;31057;48.498;32.260;2022-12-05T01:06:40;-7.30;99.90
45319;DHT22;31057;48.498;32.260;2022-12-05T01:08:43;-7.30;99.90
45319;DHT22;31057;48.498;32.260;2022-12-05T01:10:55;-7.30;99.90
45319;DHT22;31057;48.498;32.260;2022-12-05T01:12:57;-7.30;99.90
45319;DHT22;31057;48.498;32.260;2022-12-05T01:14:59;-7.30;99.90
45319;DHT22;31057;48.498;32.260;2022-12-05T01:17:01;-7.30;99.90
45319;DHT22;31057;48.498;32.260;2022-12-05T01:19:11;-7.30;99.90
45319;DHT22;31057;48.498;32.260;2022-12-05T01:21:13;-7.20;99.90
45319;DHT22;31057;48.498;32.260;2022-12-05T01:23:15;-7.20;99.90
45319;DHT22;31057;48.498;32.260;2022-12-05T01:25:17;-7.30;99.90
45319;DHT22;31057;48.498;32.260;2022-12-05T01:27:19;-7.30;99.90
45319;DHT22;31057;48.498;32.260;2022-12-05T01:29:22;-7.20;99.90
45319;DHT22;31057;48.498;32.260;2022-12-05T01:31:28;-7.20;99.90
45319;DHT22;31057;48.498;32.260;2022-12-05T01:33:31;-7.10;99.90
45319;DHT22;31057;48.498;32.260;2022-12-05T01:35:35;-6.90;99.90
45319;DHT22;31057;48.498;32.260;2022-12-05T01:37:37;-7.00;99.90
45319;DHT22;31057;48.498;32.260;2022-12-05T01:39:39;-7.00;99.90
45319;DHT22;31057;48.498;32.260;2022-12-05T01:41:44;-7.00;99.90
45319;DHT22;31057;48.498;32.260;2022-12-05T01:44:04;-7.10;99.90
45319;DHT22;31057;48.498;32.260;2022-12-05T01:46:07;-7.10;99.90
45319;DHT22;31057;48.498;32.260;2022-12-05T01:48:17;-7.10;99.90
45319;DHT22;31057;48.498;32.260;2022-12-05T01:50:20;-7.10;99.90
45319;DHT22;31057;48.498;32.260;2022-12-05T01:52:25;-6.90;99.90
45319;DHT22;31057;48.498;32.260;2022-12-05T01:54:28;-7.00;99.90
45319;DHT22;31057;48.498;32.260;2022-12-05T01:56:31;-7.00;99.90
45319;DHT22;31057;48.498;32.260;2022-12-05T01:58:36;-7.00;99.90
45319;DHT22;31057;48.498;32.260;2022-12-05T02:00:39;-7.00;99.90
45319;DHT22;31057;48.498;32.260;2022-12-05T02:02:45;-7.00;99.90
45319;DHT22;31057;48.498;32.260;2022-12-05T02:05:19;-7.00;99.90
45319;DHT22;31057;48.498;32.260;2022-12-05T02:07:19;-7.00;99.90
45319;DHT22;31057;48.498;32.260;2022-12-05T02:09:21;-6.90;99.90
45319;DHT22;31057;48.498;32.260;2022-12-05T02:11:25;-6.90;99.90
45319;DHT22;31057;48.498;32.260;2022-12-05T02:15:45;-7.00;99.90
45319;DHT22;31057;48.498;32.260;2022-12-05T02:27:32;-6.80;99.90
45319;DHT22;31057;48.498;32.260;2022-12-05T02:30:26;-7.00;99.90
45319;DHT22;31057;48.498;32.260;2022-12-05T02:35:11;-7.00;99.90
45319;DHT22;31057;48.498;32.260;2022-12-05T02:37:21;-7.00;99.90
45319;DHT22;31057;48.498;32.260;2022-12-05T02:39:50;-7.10;99.90
45319;DHT22;31057;48.498;32.260;2022-12-05T02:42:04;-7.00;99.90
45319;DHT22;31057;48.498;32.260;2022-12-05T02:46:20;-6.90;99.90
45319;DHT22;31057;48.498;32.260;2022-12-05T02:48:26;-7.00;99.90
45319;DHT22;31057;48.498;32.260;2022-12-05T02:50:33;-7.00;99.90
45319;DHT22;31057;48.498;32.260;2022-12-05T02:52:36;-7.00;99.90
45319;DHT22;31057;48.498;32.260;2022-12-05T02:54:41;-7.00;99.90
45319;DHT22;31057;48.498;32.260;2022-12-05T02:56:44;-7.00;99.90
45319;DHT22;31057;48.498;32.260;2022-12-05T02:58:54;-6.90;99.90
45319;DHT22;31057;48.498;32.260;2022-12-05T03:00:57;-6.90;99.90
45319;DHT22;31057;48.498;32.260;2022-12-05T03:02:59;-7.00;99.90
45319;DHT22;31057;48.498;32.260;2022-12-05T03:07:43;-7.00;99.90
45319;DHT22;31057;48.498;32.260;2022-12-05T03:10:13;-7.00;99.90
45319;DHT22;31057;48.498;32.260;2022-12-05T03:12:31;-7.00;99.90
45319;DHT22;31057;48.498;32.260;2022-12-05T03:14:42;-7.00;99.90
45319;DHT22;31057;48.498;32.260;2022-12-05T03:16:48;-7.00;99.90
45319;DHT22;31057;48.498;32.260;2022-12-05T03:18:56;-7.10;99.90
45319;DHT22;31057;48.498;32.260;2022-12-05T03:28:03;-7.30;99.90
45319;DHT22;31057;48.498;32.260;2022-12-05T03:30:12;-7.40;99.90
45319;DHT22;31057;48.498;32.260;2022-12-05T03:32:41;-7.30;99.90
45319;DHT22;31057;48.498;32.260;2022-12-05T03:37:08;-7.40;99.90
45319;DHT22;31057;48.498;32.260;2022-12-05T03:39:21;-7.40;99.90
45319;DHT22;31057;48.498;32.260;2022-12-05T03:41:30;-7.40;99.90
45319;DHT22;31057;48.498;32.260;2022-12-05T03:44:13;-7.50;99.90
45319;DHT22;31057;48.498;32.260;2022-12-05T03:50:58;-7.60;99.90
45319;DHT22;31057;48.498;32.260;2022-12-05T03:53:06;-7.60;99.90
45319;DHT22;31057;48.498;32.260;2022-12-05T03:55:28;-7.80;99.90
45319;DHT22;31057;48.498;32.260;2022-12-05T03:57:48;-7.90;99.90
45319;DHT22;31057;48.498;32.260;2022-12-05T03:59:55;-7.90;99.90
45319;DHT22;31057;48.498;32.260;2022-12-05T04:02:01;-7.90;99.90
45319;DHT22;31057;48.498;32.260;2022-12-05T04:04:16;-8.10;99.90
45319;DHT22;31057;48.498;32.260;2022-12-05T04:06:29;-8.10;99.90
45319;DHT22;31057;48.498;32.260;2022-12-05T04:08:37;-8.10;99.90
45319;DHT22;31057;48.498;32.260;2022-12-05T04:10:40;-8.20;99.90
45319;DHT22;31057;48.498;32.260;2022-12-05T04:12:52;-8.20;99.90
45319;DHT22;31057;48.498;32.260;2022-12-05T04:15:03;-8.30;99.90
45319;DHT22;31057;48.498;32.260;2022-12-05T04:18:15;-8.30;99.90
45319;DHT22;31057;48.498;32.260;2022-12-05T04:19:58;-8.30;99.90
45319;DHT22;31057;48.498;32.260;2022-12-05T04:22:21;-8.40;99.90
45319;DHT22;31057;48.498;32.260;2022-12-05T04:24:28;-8.50;99.90
45319;DHT22;31057;48.498;32.260;2022-12-05T04:27:00;-8.40;99.90
45319;DHT22;31057;48.498;32.260;2022-12-05T04:29:10;-8.50;99.90
45319;DHT22;31057;48.498;32.260;2022-12-05T04:31:30;-8.50;99.90
45319;DHT22;31057;48.498;32.260;2022-12-05T04:33:49;-8.50;99.90
45319;DHT22;31057;48.498;32.260;2022-12-05T04:36:02;-8.50;99.90
45319;DHT22;31057;48.498;32.260;2022-12-05T04:38:15;-8.50;99.90
45319;DHT22;31057;48.498;32.260;2022-12-05T04:40:25;-8.60;99.90
45319;DHT22;31057;48.498;32.260;2022-12-05T04:42:30;-8.50;99.90
45319;DHT22;31057;48.498;32.260;2022-12-05T04:44:37;-8.60;99.90
45319;DHT22;31057;48.498;32.260;2022-12-05T04:46:42;-8.50;99.90
45319;DHT22;31057;48.498;32.260;2022-12-05T04:48:49;-8.60;99.90
45319;DHT22;31057;48.498;32.260;2022-12-05T04:50:54;-8.70;99.90
45319;DHT22;31057;48.498;32.260;2022-12-05T04:52:58;-8.60;99.90
45319;DHT22;31057;48.498;32.260;2022-12-05T04:55:03;-8.70;99.90
45319;DHT22;31057;48.498;32.260;2022-12-05T04:57:16;-8.70;99.90
45319;DHT22;31057;48.498;32.260;2022-12-05T04:59:19;-8.70;99.90
45319;DHT22;31057;48.498;32.260;2022-12-05T05:01:26;-8.70;99.90
45319;DHT22;31057;48.498;32.260;2022-12-05T05:03:42;-8.70;99.90
45319;DHT22;31057;48.498;32.260;2022-12-05T05:05:47;-8.70;99.90
45319;DHT22;31057;48.498;32.260;2022-12-05T05:07:52;-8.60;99.90
45319;DHT22;31057;48.498;32.260;2022-12-05T05:09:54;-8.70;99.90
45319;DHT22;31057;48.498;32.260;2022-12-05T05:11:57;-8.70;99.90
45319;DHT22;31057;48.498;32.260;2022-12-05T05:13:59;-8.70;99.90
45319;DHT22;31057;48.498;32.260;2022-12-05T05:16:02;-8.70;99.90
45319;DHT22;31057;48.498;32.260;2022-12-05T05:18:04;-8.70;99.90
45319;DHT22;31057;48.498;32.260;2022-12-05T05:20:06;-8.70;99.90
45319;DHT22;31057;48.498;32.260;2022-12-05T05:22:28;-8.70;99.90
45319;DHT22;31057;48.498;32.260;2022-12-05T05:24:30;-8.70;99.90
45319;DHT22;31057;48.498;32.260;2022-12-05T05:26:39;-8.60;99.90
45319;DHT22;31057;48.498;32.260;2022-12-05T05:28:42;-8.60;99.90
45319;DHT22;31057;48.498;32.260;2022-12-05T05:30:44;-8.60;99.90
45319;DHT22;31057;48.498;32.260;2022-12-05T05:32:46;-8.70;99.90
45319;DHT22;31057;48.498;32.260;2022-12-05T05:34:48;-8.60;99.90
45319;DHT22;31057;48.498;32.260;2022-12-05T05:36:51;-8.60;99.90
45319;DHT22;31057;48.498;32.260;2022-12-05T05:38:56;-8.50;99.90
45319;DHT22;31057;48.498;32.260;2022-12-05T05:40:58;-8.60;99.90
45319;DHT22;31057;48.498;32.260;2022-12-05T05:43:00;-8.50;99.90
45319;DHT22;31057;48.498;32.260;2022-12-05T05:45:02;-8.60;99.90
45319;DHT22;31057;48.498;32.260;2022-12-05T05:47:04;-8.50;99.90
45319;DHT22;31057;48.498;32.260;2022-12-05T05:49:06;-8.40;99.90
45319;DHT22;31057;48.498;32.260;2022-12-05T05:51:10;-8.40;99.90
45319;DHT22;31057;48.498;32.260;2022-12-05T05:53:12;-8.40;99.90
45319;DHT22;31057;48.498;32.260;2022-12-05T05:55:14;-8.20;99.90
45319;DHT22;31057;48.498;32.260;2022-12-05T05:57:16;-8.20;99.90
45319;DHT22;31057;48.498;32.260;2022-12-05T05:59:21;-8.40;99.90
45319;DHT22;31057;48.498;32.260;2022-12-05T08:12:49;-6.00;99.90
45319;DHT22;31057;48.498;32.260;2022-12-05T08:14:52;-5.70;99.90
45319;DHT22;31057;48.498;32.260;2022-12-05T08:16:53;-5.70;99.90
45319;DHT22;31057;48.498;32.260;2022-12-05T08:19:04;-5.70;99.90
45319;DHT22;31057;48.498;32.260;2022-12-05T08:21:09;-5.60;99.90
45319;DHT22;31057;48.498;32.260;2022-12-05T08:23:11;-5.60;99.90
45319;DHT22;31057;48.498;32.260;2022-12-05T08:25:13;-5.60;99.90
45319;DHT22;31057;48.498;32.260;2022-12-05T08:27:15;-5.60;99.90
45319;DHT22;31057;48.498;32.260;2022-12-05T08:29:20;-5.50;99.90
45319;DHT22;31057;48.498;32.260;2022-12-05T08:31:23;-5.40;99.90
45319;DHT22;31057;48.498;32.260;2022-12-05T08:33:25;-5.40;99.90
45319;DHT22;31057;48.498;32.260;2022-12-05T08:35:27;-5.40;99.90
45319;DHT22;31057;48.498;32.260;2022-12-05T08:37:29;-5.50;99.90
45319;DHT22;31057;48.498;32.260;2022-12-05T08:39:31;-5.50;99.90
45319;DHT22;31057;48.498;32.260;2022-12-05T08:41:39;-5.50;99.90
45319;DHT22;31057;48.498;32.260;2022-12-05T08:43:42;-5.50;99.90
45319;DHT22;31057;48.498;32.260;2022-12-05T08:45:51;-5.40;99.90
45319;DHT22;31057;48.498;32.260;2022-12-05T08:47:53;-5.50;99.90
45319;DHT22;31057;48.498;32.260;2022-12-05T08:49:57;-5.30;99.90
45319;DHT22;31057;48.498;32.260;2022-12-05T08:52:00;-5.20;99.90
45319;DHT22;31057;48.498;32.260;2022-12-05T08:54:03;-5.10;99.90
45319;DHT22;31057;48.498;32.260;2022-12-05T08:56:07;-5.30;99.90
45319;DHT22;31057;48.498;32.260;2022-12-05T08:58:09;-5.30;99.90
45319;DHT22;31057;48.498;32.260;2022-12-05T09:00:15;-4.90;99.90
45319;DHT22;31057;48.498;32.260;2022-12-05T09:02:17;-4.90;99.90
45319;DHT22;31057;48.498;32.260;2022-12-05T09:04:19;-4.50;99.90
45319;DHT22;31057;48.498;32.260;2022-12-05T09:06:23;-4.80;99.90
45319;DHT22;31057;48.498;32.260;2022-12-05T09:08:25;-4.80;99.90
45319;DHT22;31057;48.498;32.260;2022-12-05T09:10:27;-4.70;99.90
45319;DHT22;31057;48.498;32.260;2022-12-05T09:12:29;-4.60;99.90
45319;DHT22;31057;48.498;32.260;2022-12-05T09:14:31;-4.50;99.90
45319;DHT22;31057;48.498;32.260;2022-12-05T09:16:36;-4.40;99.90
45319;DHT22;31057;48.498;32.260;2022-12-05T09:18:40;-4.30;99.90
45319;DHT22;31057;48.498;32.260;2022-12-05T09:20:47;-4.70;99.90
45319;DHT22;31057;48.498;32.260;2022-12-05T09:22:51;-4.70;99.90
45319;DHT22;31057;48.498;32.260;2022-12-05T09:24:55;-4.60;99.90
45319;DHT22;31057;48.498;32.260;2022-12-05T09:26:57;-5.00;99.90
45319;DHT22;31057;48.498;32.260;2022-12-05T09:29:00;-4.70;99.90
45319;DHT22;31057;48.498;32.260;2022-12-05T09:31:12;-4.60;99.90
45319;DHT22;31057;48.498;32.260;2022-12-05T09:33:22;-4.50;99.90
45319;DHT22;31057;48.498;32.260;2022-12-05T09:35:24;-4.20;99.90
45319;DHT22;31057;48.498;32.260;2022-12-05T09:37:26;-4.00;99.90
45319;DHT22;31057;48.498;32.260;2022-12-05T09:39:43;-4.00;99.90
45319;DHT22;31057;48.498;32.260;2022-12-05T09:47:03;-3.70;99.90
45319;DHT22;31057;48.498;32.260;2022-12-05T09:49:10;-3.60;99.90
45319;DHT22;31057;48.498;32.260;2022-12-05T09:51:13;-3.60;99.90
45319;DHT22;31057;48.498;32.260;2022-12-05T09:53:27;-3.60;99.90
45319;DHT22;31057;48.498;32.260;2022-12-05T09:55:46;-4.00;99.90
45319;DHT22;31057;48.498;32.260;2022-12-05T09:57:53;-3.80;99.90
45319;DHT22;31057;48.498;32.260;2022-12-05T09:59:59;-3.80;99.90
45319;DHT22;31057;48.498;32.260;2022-12-05T10:02:40;-4.30;99.90
45319;DHT22;31057;48.498;32.260;2022-12-05T10:16:55;-3.60;99.90
45319;DHT22;31057;48.498;32.260;2022-12-05T10:19:03;-3.50;99.90
45319;DHT22;31057;48.498;32.260;2022-12-05T10:23:27;-3.50;99.90
45319;DHT22;31057;48.498;32.260;2022-12-05T10:26:01;-3.50;99.90
45319;DHT22;31057;48.498;32.260;2022-12-05T10:28:16;-3.40;99.90
45319;DHT22;31057;48.498;32.260;2022-12-05T10:30:22;-3.40;99.90
45319;DHT22;31057;48.498;32.260;2022-12-05T10:32:42;-3.20;99.90
45319;DHT22;31057;48.498;32.260;2022-12-05T10:34:49;-3.20;99.90
45319;DHT22;31057;48.498;32.260;2022-12-05T10:37:21;-3.00;99.90
45319;DHT22;31057;48.498;32.260;2022-12-05T10:39:22;-3.10;99.90
45319;DHT22;31057;48.498;32.260;2022-12-05T10:41:24;-3.10;99.90
45319;DHT22;31057;48.498;32.260;2022-12-05T10:43:29;-3.10;99.90
45319;DHT22;31057;48.498;32.260;2022-12-05T10:45:41;-3.10;99.90
45319;DHT22;31057;48.498;32.260;2022-12-05T10:47:43;-3.40;99.90
45319;DHT22;31057;48.498;32.260;2022-12-05T10:49:46;-3.20;99.90
45319;DHT22;31057;48.498;32.260;2022-12-05T10:51:48;-3.10;99.90
45319;DHT22;31057;48.498;32.260;2022-12-05T10:53:50;-3.10;99.90
45319;DHT22;31057;48.498;32.260;2022-12-05T10:55:53;-3.50;99.90
45319;DHT22;31057;48.498;32.260;2022-12-05T10:58:17;-3.50;99.90
45319;DHT22;31057;48.498;32.260;2022-12-05T11:00:29;-3.40;99.90
45319;DHT22;31057;48.498;32.260;2022-12-05T11:02:39;-3.30;99.90
45319;DHT22;31057;48.498;32.260;2022-12-05T11:04:43;-3.30;99.90
45319;DHT22;31057;48.498;32.260;2022-12-05T11:09:22;-3.10;99.90
45319;DHT22;31057;48.498;32.260;2022-12-05T11:11:27;-2.90;99.90
45319;DHT22;31057;48.498;32.260;2022-12-05T11:13:30;-2.90;99.90
45319;DHT22;31057;48.498;32.260;2022-12-05T11:15:46;-2.70;99.90
45319;DHT22;31057;48.498;32.260;2022-12-05T11:18:00;-2.70;99.90
45319;DHT22;31057;48.498;32.260;2022-12-05T11:22:19;-2.90;99.90
45319;DHT22;31057;48.498;32.260;2022-12-05T11:26:36;-3.00;99.90
45319;DHT22;31057;48.498;32.260;2022-12-05T11:28:38;-2.90;99.90
45319;DHT22;31057;48.498;32.260;2022-12-05T11:31:02;-2.90;99.90
45319;DHT22;31057;48.498;32.260;2022-12-05T11:33:18;-2.80;99.90
45319;DHT22;31057;48.498;32.260;2022-12-05T11:35:27;-2.90;99.90
45319;DHT22;31057;48.498;32.260;2022-12-05T11:37:39;-2.90;99.90
45319;DHT22;31057;48.498;32.260;2022-12-05T11:39:43;-2.90;99.90
45319;DHT22;31057;48.498;32.260;2022-12-05T11:56:21;-2.70;99.90
45319;DHT22;31057;48.498;32.260;2022-12-05T11:58:50;-2.70;99.90
45319;DHT22;31057;48.498;32.260;2022-12-05T12:03:57;-2.70;99.90
45319;DHT22;31057;48.498;32.260;2022-12-05T12:11:02;-2.60;99.90
45319;DHT22;31057;48.498;32.260;2022-12-05T12:15:39;-2.50;99.90
45319;DHT22;31057;48.498;32.260;2022-12-05T12:17:53;-2.50;99.90
45319;DHT22;31057;48.498;32.260;2022-12-05T12:30:57;-2.40;99.90
45319;DHT22;31057;48.498;32.260;2022-12-05T12:33:14;-2.40;99.90
45319;DHT22;31057;48.498;32.260;2022-12-05T12:35:36;-2.70;99.90
45319;DHT22;31057;48.498;32.260;2022-12-05T12:51:03;-3.00;99.90
45319;DHT22;31057;48.498;32.260;2022-12-05T12:56:54;-2.70;99.90
45319;DHT22;31057;48.498;32.260;2022-12-05T13:02:37;-2.70;99.90
45319;DHT22;31057;48.498;32.260;2022-12-05T13:13:59;-2.80;99.90
45319;DHT22;31057;48.498;32.260;2022-12-05T13:16:55;-2.90;99.90
45319;DHT22;31057;48.498;32.260;2022-12-05T13:20:24;-3.00;99.90
45319;DHT22;31057;48.498;32.260;2022-12-05T13:23:39;-3.10;99.90
45319;DHT22;31057;48.498;32.260;2022-12-05T13:25:59;-3.20;99.90
45319;DHT22;31057;48.498;32.260;2022-12-05T13:29:02;-3.20;99.90
45319;DHT22;31057;48.498;32.260;2022-12-05T13:31:41;-3.20;99.90
45319;DHT22;31057;48.498;32.260;2022-12-05T13:37:36;-3.30;99.90
45319;DHT22;31057;48.498;32.260;2022-12-05T13:40:02;-3.30;99.90
45319;DHT22;31057;48.498;32.260;2022-12-05T13:42:27;-3.40;99.90
45319;DHT22;31057;48.498;32.260;2022-12-05T13:45:13;-3.40;99.90
45319;DHT22;31057;48.498;32.260;2022-12-05T13:48:43;-3.50;99.90
45319;DHT22;31057;48.498;32.260;2022-12-05T14:04:57;-3.80;99.90
45319;DHT22;31057;48.498;32.260;2022-12-05T14:14:56;-3.70;99.90
45319;DHT22;31057;48.498;32.260;2022-12-05T14:17:01;-3.80;99.90
45319;DHT22;31057;48.498;32.260;2022-12-05T14:23:10;-4.00;99.90
45319;DHT22;31057;48.498;32.260;2022-12-05T14:28:17;-4.10;99.90
45319;DHT22;31057;48.498;32.260;2022-12-05T14:43:55;-4.30;99.90
45319;DHT22;31057;48.498;32.260;2022-12-05T14:46:42;-4.40;99.90
45319;DHT22;31057;48.498;32.260;2022-12-05T14:52:40;-4.50;99.90
45319;DHT22;31057;48.498;32.260;2022-12-05T14:55:39;-4.50;99.90
45319;DHT22;31057;48.498;32.260;2022-12-05T14:58:08;-4.50;99.90
45319;DHT22;31057;48.498;32.260;2022-12-05T15:00:56;-4.50;99.90
45319;DHT22;31057;48.498;32.260;2022-12-05T15:05:58;-4.60;99.90
45319;DHT22;31057;48.498;32.260;2022-12-05T15:11:29;-4.50;99.90
45319;DHT22;31057;48.498;32.260;2022-12-05T15:14:18;-4.50;99.90
45319;DHT22;31057;48.498;32.260;2022-12-05T15:16:33;-4.60;99.90
45319;DHT22;31057;48.498;32.260;2022-12-05T15:19:26;-4.60;99.90
45319;DHT22;31057;48.498;32.260;2022-12-05T15:21:51;-4.60;99.90
45319;DHT22;31057;48.498;32.260;2022-12-05T15:31:34;-4.60;99.90
45319;DHT22;31057;48.498;32.260;2022-12-05T15:42:37;-4.70;99.90
45319;DHT22;31057;48.498;32.260;2022-12-05T15:47:41;-4.90;99.90
45319;DHT22;31057;48.498;32.260;2022-12-05T15:49:45;-4.90;99.90
45319;DHT22;31057;48.498;32.260;2022-12-05T15:54:32;-5.00;99.90
45319;DHT22;31057;48.498;32.260;2022-12-05T15:56:47;-5.00;99.90
45319;DHT22;31057;48.498;32.260;2022-12-05T15:59:02;-5.00;99.90
45319;DHT22;31057;48.498;32.260;2022-12-05T16:01:22;-5.00;99.90
45319;DHT22;31057;48.498;32.260;2022-12-05T16:03:45;-5.10;99.90
45319;DHT22;31057;48.498;32.260;2022-12-05T16:05:54;-5.10;99.90
45319;DHT22;31057;48.498;32.260;2022-12-05T16:08:01;-5.10;99.90
45319;DHT22;31057;48.498;32.260;2022-12-05T16:10:12;-5.10;99.90
45319;DHT22;31057;48.498;32.260;2022-12-05T16:12:22;-5.10;99.90
45319;DHT22;31057;48.498;32.260;2022-12-05T16:14:31;-5.20;99.90
45319;DHT22;31057;48.498;32.260;2022-12-05T16:16:57;-5.20;99.90
45319;DHT22;31057;48.498;32.260;2022-12-05T16:19:16;-5.20;99.90
45319;DHT22;31057;48.498;32.260;2022-12-05T16:23:40;-5.30;99.90
45319;DHT22;31057;48.498;32.260;2022-12-05T16:25:44;-5.20;99.90
45319;DHT22;31057;48.498;32.260;2022-12-05T16:32:22;-5.20;99.90
45319;DHT22;31057;48.498;32.260;2022-12-05T16:34:30;-5.20;99.90
45319;DHT22;31057;48.498;32.260;2022-12-05T16:36:34;-5.30;99.90
45319;DHT22;31057;48.498;32.260;2022-12-05T16:38:38;-5.20;99.90
45319;DHT22;31057;48.498;32.260;2022-12-05T16:40:59;-5.30;99.90
45319;DHT22;31057;48.498;32.260;2022-12-05T16:43:03;-5.40;99.90
45319;DHT22;31057;48.498;32.260;2022-12-05T16:45:36;-5.30;99.90
45319;DHT22;31057;48.498;32.260;2022-12-05T16:49:47;-5.30;99.90
45319;DHT22;31057;48.498;32.260;2022-12-05T16:52:12;-5.40;99.90
45319;DHT22;31057;48.498;32.260;2022-12-05T16:54:15;-5.40;99.90
45319;DHT22;31057;48.498;32.260;2022-12-05T16:56:29;-5.40;99.90
45319;DHT22;31057;48.498;32.260;2022-12-05T16:58:33;-5.40;99.90
45319;DHT22;31057;48.498;32.260;2022-12-05T17:00:36;-5.40;99.90
45319;DHT22;31057;48.498;32.260;2022-12-05T17:02:48;-5.40;99.90
45319;DHT22;31057;48.498;32.260;2022-12-05T17:04:56;-5.50;99.90
45319;DHT22;31057;48.498;32.260;2022-12-05T17:06:58;-5.50;99.90
45319;DHT22;31057;48.498;32.260;2022-12-05T17:09:00;-5.50;99.90
45319;DHT22;31057;48.498;32.260;2022-12-05T17:13:29;-5.50;99.90
45319;DHT22;31057;48.498;32.260;2022-12-05T17:15:31;-5.50;99.90
45319;DHT22;31057;48.498;32.260;2022-12-05T17:17:33;-5.60;99.90
45319;DHT22;31057;48.498;32.260;2022-12-05T17:19:35;-5.60;99.90
45319;DHT22;31057;48.498;32.260;2022-12-05T17:21:38;-5.60;99.90
45319;DHT22;31057;48.498;32.260;2022-12-05T17:23:44;-5.60;99.90
45319;DHT22;31057;48.498;32.260;2022-12-05T17:25:54;-5.70;99.90
45319;DHT22;31057;48.498;32.260;2022-12-05T17:27:56;-5.60;99.90
45319;DHT22;31057;48.498;32.260;2022-12-05T17:29:59;-5.70;99.90
45319;DHT22;31057;48.498;32.260;2022-12-05T17:32:02;-5.70;99.90
45319;DHT22;31057;48.498;32.260;2022-12-05T17:34:11;-5.70;99.90
45319;DHT22;31057;48.498;32.260;2022-12-05T17:36:16;-5.70;99.90
45319;DHT22;31057;48.498;32.260;2022-12-05T17:38:18;-5.70;99.90
45319;DHT22;31057;48.498;32.260;2022-12-05T17:40:20;-5.80;99.90
45319;DHT22;31057;48.498;32.260;2022-12-05T17:42:27;-5.80;99.90
45319;DHT22;31057;48.498;32.260;2022-12-05T17:44:29;-5.80;99.90
45319;DHT22;31057;48.498;32.260;2022-12-05T17:46:32;-5.80;99.90
45319;DHT22;31057;48.498;32.260;2022-12-05T17:48:34;-5.80;99.90
45319;DHT22;31057;48.498;32.260;2022-12-05T17:50:36;-5.80;99.90
45319;DHT22;31057;48.498;32.260;2022-12-05T17:52:40;-5.80;99.90
45319;DHT22;31057;48.498;32.260;2022-12-05T17:54:42;-5.90;99.90
45319;DHT22;31057;48.498;32.260;2022-12-05T17:56:44;-5.90;99.90
45319;DHT22;31057;48.498;32.260;2022-12-05T17:58:46;-5.90;99.90
45319;DHT22;31057;48.498;32.260;2022-12-05T18:00:48;-6.00;99.90
45319;DHT22;31057;48.498;32.260;2022-12-05T20:14:50;-6.30;99.90
45319;DHT22;31057;48.498;32.260;2022-12-05T20:16:52;-6.30;99.90
45319;DHT22;31057;48.498;32.260;2022-12-05T20:18:56;-6.30;99.90
45319;DHT22;31057;48.498;32.260;2022-12-05T20:21:00;-6.20;99.90
45319;DHT22;31057;48.498;32.260;2022-12-05T20:23:02;-6.20;99.90
45319;DHT22;31057;48.498;32.260;2022-12-05T20:25:04;-6.20;99.90
45319;DHT22;31057;48.498;32.260;2022-12-05T20:27:06;-6.30;99.90
45319;DHT22;31057;48.498;32.260;2022-12-05T20:29:09;-6.40;99.90
45319;DHT22;31057;48.498;32.260;2022-12-05T20:33:16;-6.50;99.90
45319;DHT22;31057;48.498;32.260;2022-12-05T20:35:18;-6.30;99.90
45319;DHT22;31057;48.498;32.260;2022-12-05T20:37:25;-6.40;99.90
45319;DHT22;31057;48.498;32.260;2022-12-05T20:39:31;-6.40;99.90
45319;DHT22;31057;48.498;32.260;2022-12-05T20:41:34;-6.40;99.90
45319;DHT22;31057;48.498;32.260;2022-12-05T20:43:36;-6.40;99.90
45319;DHT22;31057;48.498;32.260;2022-12-05T20:45:38;-6.40;99.90
45319;DHT22;31057;48.498;32.260;2022-12-05T20:47:40;-6.40;99.90
45319;DHT22;31057;48.498;32.260;2022-12-05T20:49:42;-6.50;99.90
45319;DHT22;31057;48.498;32.260;2022-12-05T20:51:45;-6.40;99.90
45319;DHT22;31057;48.498;32.260;2022-12-05T20:53:48;-6.50;99.90
45319;DHT22;31057;48.498;32.260;2022-12-05T20:55:51;-6.50;99.90
45319;DHT22;31057;48.498;32.260;2022-12-05T20:57:53;-6.50;99.90
45319;DHT22;31057;48.498;32.260;2022-12-05T20:59:55;-6.50;99.90
45319;DHT22;31057;48.498;32.260;2022-12-05T21:01:57;-6.60;99.90
45319;DHT22;31057;48.498;32.260;2022-12-05T21:04:00;-6.60;99.90
45319;DHT22;31057;48.498;32.260;2022-12-05T21:06:13;-6.60;99.90
45319;DHT22;31057;48.498;32.260;2022-12-05T21:08:17;-6.60;99.90
45319;DHT22;31057;48.498;32.260;2022-12-05T21:10:19;-6.70;99.90
45319;DHT22;31057;48.498;32.260;2022-12-05T21:12:22;-6.60;99.90
45319;DHT22;31057;48.498;32.260;2022-12-05T21:14:24;-6.60;99.90
45319;DHT22;31057;48.498;32.260;2022-12-05T21:16:26;-6.50;99.90
45319;DHT22;31057;48.498;32.260;2022-12-05T21:18:29;-6.50;99.90
45319;DHT22;31057;48.498;32.260;2022-12-05T21:20:31;-6.60;99.90
45319;DHT22;31057;48.498;32.260;2022-12-05T21:22:39;-6.70;99.90
45319;DHT22;31057;48.498;32.260;2022-12-05T21:24:41;-6.80;99.90
45319;DHT22;31057;48.498;32.260;2022-12-05T21:26:43;-6.70;99.90
45319;DHT22;31057;48.498;32.260;2022-12-05T21:28:45;-6.70;99.90
45319;DHT22;31057;48.498;32.260;2022-12-05T21:30:47;-6.80;99.90
45319;DHT22;31057;48.498;32.260;2022-12-05T21:32:49;-6.70;99.90
45319;DHT22;31057;48.498;32.260;2022-12-05T21:34:51;-6.60;99.90
45319;DHT22;31057;48.498;32.260;2022-12-05T21:36:53;-6.70;99.90
45319;DHT22;31057;48.498;32.260;2022-12-05T21:38:55;-6.60;99.90
45319;DHT22;31057;48.498;32.260;2022-12-05T21:40:57;-6.70;99.90
45319;DHT22;31057;48.498;32.260;2022-12-05T21:42:59;-6.60;99.90
45319;DHT22;31057;48.498;32.260;2022-12-05T21:45:01;-6.60;99.90
45319;DHT22;31057;48.498;32.260;2022-12-05T21:47:03;-6.50;99.90
45319;DHT22;31057;48.498;32.260;2022-12-05T21:49:05;-6.70;99.90
45319;DHT22;31057;48.498;32.260;2022-12-05T21:51:08;-6.70;99.90
45319;DHT22;31057;48.498;32.260;2022-12-05T21:53:10;-6.70;99.90
45319;DHT22;31057;48.498;32.260;2022-12-05T21:55:12;-6.70;99.90
45319;DHT22;31057;48.498;32.260;2022-12-05T21:57:14;-6.60;99.90
45319;DHT22;31057;48.498;32.260;2022-12-05T21:59:16;-6.70;99.90